createdAt,value
2023-11-22T00:01:15.659Z,86
2023-11-22T00:11:15.951Z,86
2023-11-22T00:21:16.061Z,86
2023-11-22T00:31:16.294Z,86
2023-11-22T00:41:16.474Z,86
2023-11-22T00:51:16.635Z,87
2023-11-22T01:01:16.919Z,87
2023-11-22T01:21:17.271Z,87
2023-11-22T01:31:17.478Z,88
2023-11-22T01:41:17.675Z,88
2023-11-22T01:51:17.851Z,88
2023-11-22T02:01:18.135Z,88
2023-11-22T02:11:18.279Z,88
2023-11-22T02:21:18.462Z,88
2023-11-22T02:31:18.723Z,88
2023-11-22T02:41:18.878Z,88
2023-11-22T02:51:19.072Z,88
2023-11-22T03:01:19.264Z,88
2023-11-22T03:11:19.503Z,89
2023-11-22T03:21:19.725Z,88
2023-11-22T03:31:19.910Z,88
2023-11-22T03:41:20.100Z,88
2023-11-22T03:51:20.294Z,88
2023-11-22T04:01:20.550Z,89
2023-11-22T04:11:20.710Z,89
2023-11-22T04:41:21.337Z,89
2023-11-22T04:51:21.518Z,89
2023-11-22T05:01:23.023Z,89
2023-11-22T05:11:21.932Z,89
2023-11-22T05:21:22.122Z,89
2023-11-22T05:31:22.353Z,89
2023-11-22T05:41:22.550Z,89
2023-11-22T05:51:22.806Z,89
2023-11-22T06:01:22.921Z,89
2023-11-22T06:11:23.147Z,89
2023-11-22T06:21:23.388Z,89
2023-11-22T06:31:23.521Z,89
2023-11-22T06:41:23.759Z,89
2023-11-22T06:51:23.946Z,90
2023-11-22T07:01:24.165Z,90
2023-11-22T07:11:24.397Z,90
2023-11-22T07:21:24.573Z,90
2023-11-22T07:31:24.764Z,90
2023-11-22T07:41:25.055Z,90
2023-11-22T08:11:25.618Z,90
2023-11-22T08:21:25.786Z,90
2023-11-22T08:31:26.027Z,90
2023-11-22T08:41:26.206Z,90
2023-11-22T08:51:26.406Z,90
2023-11-22T09:01:26.605Z,89
2023-11-22T09:11:26.832Z,90
2023-11-22T09:21:27.019Z,90
2023-11-22T09:31:27.226Z,90
2023-11-22T09:41:27.423Z,89
2023-11-22T09:51:27.599Z,89
2023-11-22T10:01:27.809Z,88
2023-11-22T10:11:28.049Z,88
2023-11-22T10:21:28.213Z,88
2023-11-22T10:31:28.430Z,87
2023-11-22T10:41:28.689Z,86
2023-11-22T10:51:28.829Z,86
2023-11-22T11:01:29.079Z,85
2023-11-22T11:11:29.262Z,84
2023-11-22T11:21:29.920Z,84
2023-11-22T11:31:29.658Z,83
2023-11-22T11:41:29.894Z,82
2023-11-22T11:51:30.000Z,81
2023-11-22T12:01:30.245Z,79
2023-11-22T12:11:30.453Z,77
2023-11-22T12:21:30.616Z,78
2023-11-22T12:31:30.898Z,76
2023-11-22T12:41:31.008Z,75
2023-11-22T12:51:31.214Z,74
2023-11-22T13:01:31.466Z,74
2023-11-22T13:11:31.644Z,74
2023-11-22T13:21:31.805Z,73
2023-11-22T13:31:32.101Z,72
2023-11-22T13:41:32.224Z,72
2023-11-22T13:51:32.415Z,71
2023-11-22T14:01:32.631Z,71
2023-11-22T14:11:32.852Z,71
2023-11-22T14:21:33.011Z,70
2023-11-22T14:41:33.429Z,69
2023-11-22T15:01:33.986Z,70
2023-11-22T15:11:34.096Z,70
2023-11-22T15:41:34.655Z,71
2023-11-22T16:01:35.027Z,71
2023-11-22T16:21:35.432Z,70
2023-11-22T16:31:35.607Z,71
2023-11-22T16:41:35.863Z,71
2023-11-22T16:51:36.010Z,72
2023-11-22T17:01:36.323Z,72
2023-11-22T17:11:36.473Z,72
2023-11-22T17:21:36.617Z,72
2023-11-22T17:31:36.828Z,72
2023-11-22T17:41:37.050Z,72
2023-11-22T18:01:37.436Z,73
2023-11-22T18:11:37.661Z,73
2023-11-22T18:21:37.825Z,74
2023-11-22T18:31:38.018Z,74
2023-11-22T18:41:38.231Z,75
2023-11-22T18:51:38.422Z,76
2023-11-22T19:11:38.875Z,77
2023-11-22T19:21:39.026Z,77
2023-11-22T19:31:39.245Z,77
2023-11-22T19:41:39.436Z,77
2023-11-22T19:51:39.642Z,77
2023-11-22T20:01:39.844Z,77
2023-11-22T20:11:40.089Z,77
2023-11-22T20:21:40.229Z,77
2023-11-22T20:31:40.444Z,77
2023-11-22T20:41:40.662Z,77
2023-11-22T20:51:40.820Z,77
2023-11-22T21:01:41.107Z,77
2023-11-22T21:11:41.229Z,77
2023-11-22T21:21:41.429Z,77
2023-11-22T21:41:41.821Z,77
2023-11-22T21:51:42.048Z,77
2023-11-22T22:01:42.272Z,77
2023-11-22T22:21:42.736Z,78
2023-11-22T22:41:43.083Z,78
2023-11-22T23:01:43.606Z,79
2023-11-22T23:11:43.704Z,79
2023-11-22T23:31:44.088Z,80
2023-11-22T23:41:44.222Z,80
2023-11-22T23:51:44.430Z,80
